sensor_id;sensor_type;location;lat;lon;timestamp;P1;durP1;ratioP1;P2;durP2;ratioP2
67508;SDS011;54354;44.724;11.284;2023-03-24T00:01:02;9.13;;;7.05;;
67508;SDS011;54354;44.724;11.284;2023-03-24T00:03:28;7.90;;;7.10;;
67508;SDS011;54354;44.724;11.284;2023-03-24T00:05:58;9.68;;;7.40;;
67508;SDS011;54354;44.724;11.284;2023-03-24T00:08:29;8.75;;;7.30;;
67508;SDS011;54354;44.724;11.284;2023-03-24T00:11:06;8.43;;;7.50;;
67508;SDS011;54354;44.724;11.284;2023-03-24T00:13:34;11.70;;;7.97;;
67508;SDS011;54354;44.724;11.284;2023-03-24T00:18:32;12.60;;;9.23;;
67508;SDS011;54354;44.724;11.284;2023-03-24T00:20:58;14.20;;;10.95;;
67508;SDS011;54354;44.724;11.284;2023-03-24T00:23:25;15.40;;;11.55;;
67508;SDS011;54354;44.724;11.284;2023-03-24T00:28:32;16.58;;;13.15;;
67508;SDS011;54354;44.724;11.284;2023-03-24T00:30:59;20.30;;;14.50;;
67508;SDS011;54354;44.724;11.284;2023-03-24T00:33:26;23.70;;;16.05;;
67508;SDS011;54354;44.724;11.284;2023-03-24T00:35:56;22.60;;;16.63;;
67508;SDS011;54354;44.724;11.284;2023-03-24T00:38:22;28.92;;;18.10;;
67508;SDS011;54354;44.724;11.284;2023-03-24T00:40:48;25.02;;;18.25;;
67508;SDS011;54354;44.724;11.284;2023-03-24T00:43:14;30.02;;;18.70;;
67508;SDS011;54354;44.724;11.284;2023-03-24T00:45:41;26.23;;;18.00;;
67508;SDS011;54354;44.724;11.284;2023-03-24T00:48:13;27.42;;;18.63;;
67508;SDS011;54354;44.724;11.284;2023-03-24T00:50:49;25.88;;;18.85;;
67508;SDS011;54354;44.724;11.284;2023-03-24T00:53:16;27.27;;;18.80;;
67508;SDS011;54354;44.724;11.284;2023-03-24T00:55:43;24.35;;;17.73;;
67508;SDS011;54354;44.724;11.284;2023-03-24T00:58:11;23.98;;;18.33;;
67508;SDS011;54354;44.724;11.284;2023-03-24T01:00:42;27.75;;;18.48;;
67508;SDS011;54354;44.724;11.284;2023-03-24T01:03:09;23.42;;;18.23;;
67508;SDS011;54354;44.724;11.284;2023-03-24T01:05:38;21.90;;;17.40;;
67508;SDS011;54354;44.724;11.284;2023-03-24T01:08:04;25.30;;;19.00;;
67508;SDS011;54354;44.724;11.284;2023-03-24T01:10:32;25.63;;;18.92;;
67508;SDS011;54354;44.724;11.284;2023-03-24T01:13:00;24.15;;;18.30;;
67508;SDS011;54354;44.724;11.284;2023-03-24T01:15:28;25.17;;;19.15;;
67508;SDS011;54354;44.724;11.284;2023-03-24T01:17:57;26.40;;;18.23;;
67508;SDS011;54354;44.724;11.284;2023-03-24T01:20:26;23.60;;;18.35;;
67508;SDS011;54354;44.724;11.284;2023-03-24T01:22:57;27.35;;;18.83;;
67508;SDS011;54354;44.724;11.284;2023-03-24T01:25:24;23.35;;;17.85;;
67508;SDS011;54354;44.724;11.284;2023-03-24T01:27:51;25.17;;;18.85;;
67508;SDS011;54354;44.724;11.284;2023-03-24T01:30:19;31.45;;;20.27;;
67508;SDS011;54354;44.724;11.284;2023-03-24T01:32:48;29.00;;;20.23;;
67508;SDS011;54354;44.724;11.284;2023-03-24T01:35:14;30.45;;;19.92;;
67508;SDS011;54354;44.724;11.284;2023-03-24T01:37:39;31.77;;;21.10;;
67508;SDS011;54354;44.724;11.284;2023-03-24T01:40:05;36.35;;;20.70;;
67508;SDS011;54354;44.724;11.284;2023-03-24T01:42:36;27.73;;;21.40;;
67508;SDS011;54354;44.724;11.284;2023-03-24T01:48:11;33.80;;;22.27;;
67508;SDS011;54354;44.724;11.284;2023-03-24T01:50:54;31.05;;;22.65;;
67508;SDS011;54354;44.724;11.284;2023-03-24T01:53:26;32.08;;;23.05;;
67508;SDS011;54354;44.724;11.284;2023-03-24T01:55:52;29.73;;;22.08;;
67508;SDS011;54354;44.724;11.284;2023-03-24T01:58:22;30.87;;;22.80;;
67508;SDS011;54354;44.724;11.284;2023-03-24T02:01:08;31.15;;;21.75;;
67508;SDS011;54354;44.724;11.284;2023-03-24T02:03:49;28.45;;;22.00;;
67508;SDS011;54354;44.724;11.284;2023-03-24T02:06:17;33.70;;;21.55;;
67508;SDS011;54354;44.724;11.284;2023-03-24T02:11:16;26.67;;;21.30;;
67508;SDS011;54354;44.724;11.284;2023-03-24T02:13:50;31.98;;;21.90;;
67508;SDS011;54354;44.724;11.284;2023-03-24T02:21:43;28.83;;;21.45;;
67508;SDS011;54354;44.724;11.284;2023-03-24T02:40:36;25.80;;;18.63;;
67508;SDS011;54354;44.724;11.284;2023-03-24T02:43:15;23.88;;;18.42;;
67508;SDS011;54354;44.724;11.284;2023-03-24T02:46:32;27.65;;;19.08;;
67508;SDS011;54354;44.724;11.284;2023-03-24T02:51:57;22.55;;;17.92;;
67508;SDS011;54354;44.724;11.284;2023-03-24T02:57:33;20.60;;;16.65;;
67508;SDS011;54354;44.724;11.284;2023-03-24T03:00:30;22.77;;;17.55;;
67508;SDS011;54354;44.724;11.284;2023-03-24T03:03:07;25.85;;;17.65;;
67508;SDS011;54354;44.724;11.284;2023-03-24T03:05:38;25.85;;;17.45;;
67508;SDS011;54354;44.724;11.284;2023-03-24T03:08:08;20.52;;;17.20;;
67508;SDS011;54354;44.724;11.284;2023-03-24T03:10:40;27.15;;;18.05;;
67508;SDS011;54354;44.724;11.284;2023-03-24T03:13:24;21.27;;;17.90;;
67508;SDS011;54354;44.724;11.284;2023-03-24T03:15:54;21.60;;;16.48;;
67508;SDS011;54354;44.724;11.284;2023-03-24T03:18:24;20.20;;;17.40;;
67508;SDS011;54354;44.724;11.284;2023-03-24T03:20:53;23.63;;;17.83;;
67508;SDS011;54354;44.724;11.284;2023-03-24T03:23:24;22.02;;;17.60;;
67508;SDS011;54354;44.724;11.284;2023-03-24T03:25:57;21.17;;;16.27;;
67508;SDS011;54354;44.724;11.284;2023-03-24T03:28:29;21.55;;;17.15;;
67508;SDS011;54354;44.724;11.284;2023-03-24T03:31:00;21.05;;;17.20;;
67508;SDS011;54354;44.724;11.284;2023-03-24T03:33:32;21.70;;;16.80;;
67508;SDS011;54354;44.724;11.284;2023-03-24T03:36:02;21.70;;;17.48;;
67508;SDS011;54354;44.724;11.284;2023-03-24T03:38:35;20.73;;;16.55;;
67508;SDS011;54354;44.724;11.284;2023-03-24T03:41:05;19.83;;;16.70;;
67508;SDS011;54354;44.724;11.284;2023-03-24T03:43:33;21.73;;;16.38;;
67508;SDS011;54354;44.724;11.284;2023-03-24T03:46:00;21.27;;;16.73;;
67508;SDS011;54354;44.724;11.284;2023-03-24T03:48:32;23.67;;;16.52;;
67508;SDS011;54354;44.724;11.284;2023-03-24T03:50:59;18.10;;;15.52;;
67508;SDS011;54354;44.724;11.284;2023-03-24T03:53:26;19.23;;;15.15;;
67508;SDS011;54354;44.724;11.284;2023-03-24T03:55:57;26.83;;;15.15;;
67508;SDS011;54354;44.724;11.284;2023-03-24T03:58:24;17.30;;;14.63;;
67508;SDS011;54354;44.724;11.284;2023-03-24T04:00:54;16.30;;;14.50;;
67508;SDS011;54354;44.724;11.284;2023-03-24T04:04:19;20.35;;;14.35;;
67508;SDS011;54354;44.724;11.284;2023-03-24T04:06:40;16.15;;;14.43;;
67508;SDS011;54354;44.724;11.284;2023-03-24T04:15:08;15.75;;;12.80;;
67508;SDS011;54354;44.724;11.284;2023-03-24T04:18:22;21.17;;;13.68;;
67508;SDS011;54354;44.724;11.284;2023-03-24T04:21:04;14.98;;;12.98;;
67508;SDS011;54354;44.724;11.284;2023-03-24T04:31:33;18.02;;;12.77;;
67508;SDS011;54354;44.724;11.284;2023-03-24T04:34:06;16.80;;;13.27;;
67508;SDS011;54354;44.724;11.284;2023-03-24T04:39:24;18.42;;;11.43;;
67508;SDS011;54354;44.724;11.284;2023-03-24T04:42:00;13.30;;;11.60;;
67508;SDS011;54354;44.724;11.284;2023-03-24T04:44:29;14.02;;;11.88;;
67508;SDS011;54354;44.724;11.284;2023-03-24T04:47:21;12.88;;;11.43;;
67508;SDS011;54354;44.724;11.284;2023-03-24T04:50:13;15.85;;;12.18;;
67508;SDS011;54354;44.724;11.284;2023-03-24T04:52:42;16.02;;;13.00;;
67508;SDS011;54354;44.724;11.284;2023-03-24T04:55:20;13.45;;;11.88;;
67508;SDS011;54354;44.724;11.284;2023-03-24T04:57:57;14.57;;;11.70;;
67508;SDS011;54354;44.724;11.284;2023-03-24T05:00:23;16.85;;;11.70;;
67508;SDS011;54354;44.724;11.284;2023-03-24T05:02:48;15.20;;;11.23;;
67508;SDS011;54354;44.724;11.284;2023-03-24T05:05:23;15.68;;;11.02;;
67508;SDS011;54354;44.724;11.284;2023-03-24T05:07:48;14.65;;;11.15;;
67508;SDS011;54354;44.724;11.284;2023-03-24T05:10:15;12.40;;;10.45;;
67508;SDS011;54354;44.724;11.284;2023-03-24T05:12:47;12.52;;;10.35;;
67508;SDS011;54354;44.724;11.284;2023-03-24T05:15:18;18.92;;;10.48;;
67508;SDS011;54354;44.724;11.284;2023-03-24T05:17:46;10.60;;;9.50;;
67508;SDS011;54354;44.724;11.284;2023-03-24T05:20:11;12.90;;;10.40;;
67508;SDS011;54354;44.724;11.284;2023-03-24T05:22:42;12.20;;;10.18;;
67508;SDS011;54354;44.724;11.284;2023-03-24T05:25:08;16.95;;;10.90;;
67508;SDS011;54354;44.724;11.284;2023-03-24T05:27:34;13.98;;;9.85;;
67508;SDS011;54354;44.724;11.284;2023-03-24T05:30:12;14.98;;;10.25;;
67508;SDS011;54354;44.724;11.284;2023-03-24T05:32:38;16.15;;;10.00;;
67508;SDS011;54354;44.724;11.284;2023-03-24T05:35:03;14.75;;;10.07;;
67508;SDS011;54354;44.724;11.284;2023-03-24T05:37:32;14.60;;;10.02;;
67508;SDS011;54354;44.724;11.284;2023-03-24T05:39:57;13.02;;;9.80;;
67508;SDS011;54354;44.724;11.284;2023-03-24T05:42:39;14.35;;;10.15;;
67508;SDS011;54354;44.724;11.284;2023-03-24T05:45:06;20.00;;;9.65;;
67508;SDS011;54354;44.724;11.284;2023-03-24T05:47:32;18.55;;;10.27;;
67508;SDS011;54354;44.724;11.284;2023-03-24T05:49:57;12.75;;;9.93;;
67508;SDS011;54354;44.724;11.284;2023-03-24T05:52:23;14.23;;;9.63;;
67508;SDS011;54354;44.724;11.284;2023-03-24T05:54:56;18.10;;;10.13;;
67508;SDS011;54354;44.724;11.284;2023-03-24T05:57:25;17.73;;;10.82;;
67508;SDS011;54354;44.724;11.284;2023-03-24T06:00:14;11.65;;;8.75;;
67508;SDS011;54354;44.724;11.284;2023-03-24T06:02:57;14.02;;;10.52;;
67508;SDS011;54354;44.724;11.284;2023-03-24T06:05:32;11.73;;;9.52;;
67508;SDS011;54354;44.724;11.284;2023-03-24T06:07:58;19.92;;;9.90;;
67508;SDS011;54354;44.724;11.284;2023-03-24T06:10:27;14.25;;;10.13;;
67508;SDS011;54354;44.724;11.284;2023-03-24T06:12:54;17.42;;;10.05;;
67508;SDS011;54354;44.724;11.284;2023-03-24T06:15:22;12.07;;;9.57;;
67508;SDS011;54354;44.724;11.284;2023-03-24T06:17:52;14.13;;;9.57;;
67508;SDS011;54354;44.724;11.284;2023-03-24T06:20:32;12.55;;;9.98;;
67508;SDS011;54354;44.724;11.284;2023-03-24T06:23:00;16.08;;;9.63;;
67508;SDS011;54354;44.724;11.284;2023-03-24T06:25:34;11.75;;;9.48;;
67508;SDS011;54354;44.724;11.284;2023-03-24T06:28:11;15.60;;;9.80;;
67508;SDS011;54354;44.724;11.284;2023-03-24T06:30:41;12.05;;;9.25;;
67508;SDS011;54354;44.724;11.284;2023-03-24T06:33:08;16.42;;;9.80;;
67508;SDS011;54354;44.724;11.284;2023-03-24T06:35:36;15.05;;;9.55;;
67508;SDS011;54354;44.724;11.284;2023-03-24T06:38:06;13.32;;;10.00;;
67508;SDS011;54354;44.724;11.284;2023-03-24T06:40:33;16.70;;;10.30;;
67508;SDS011;54354;44.724;11.284;2023-03-24T06:42:59;13.45;;;9.63;;
67508;SDS011;54354;44.724;11.284;2023-03-24T06:45:25;14.88;;;9.90;;
67508;SDS011;54354;44.724;11.284;2023-03-24T06:47:54;16.58;;;10.13;;
67508;SDS011;54354;44.724;11.284;2023-03-24T06:50:20;16.43;;;10.13;;
67508;SDS011;54354;44.724;11.284;2023-03-24T06:52:47;10.80;;;9.63;;
67508;SDS011;54354;44.724;11.284;2023-03-24T06:55:16;13.70;;;9.50;;
67508;SDS011;54354;44.724;11.284;2023-03-24T06:57:42;18.27;;;10.20;;
67508;SDS011;54354;44.724;11.284;2023-03-24T07:00:27;19.77;;;9.77;;
67508;SDS011;54354;44.724;11.284;2023-03-24T07:03:16;17.42;;;9.65;;
67508;SDS011;54354;44.724;11.284;2023-03-24T07:05:54;15.30;;;10.45;;
67508;SDS011;54354;44.724;11.284;2023-03-24T07:08:21;14.93;;;9.95;;
67508;SDS011;54354;44.724;11.284;2023-03-24T07:10:52;17.15;;;9.55;;
67508;SDS011;54354;44.724;11.284;2023-03-24T07:13:18;13.38;;;9.85;;
67508;SDS011;54354;44.724;11.284;2023-03-24T07:15:44;14.38;;;10.38;;
67508;SDS011;54354;44.724;11.284;2023-03-24T07:18:10;17.80;;;11.55;;
67508;SDS011;54354;44.724;11.284;2023-03-24T07:20:42;27.25;;;11.15;;
67508;SDS011;54354;44.724;11.284;2023-03-24T07:23:11;15.18;;;10.60;;
67508;SDS011;54354;44.724;11.284;2023-03-24T07:25:58;14.98;;;11.05;;
67508;SDS011;54354;44.724;11.284;2023-03-24T07:28:53;15.05;;;11.20;;
67508;SDS011;54354;44.724;11.284;2023-03-24T07:31:27;19.15;;;12.63;;
67508;SDS011;54354;44.724;11.284;2023-03-24T07:33:58;17.50;;;11.98;;
67508;SDS011;54354;44.724;11.284;2023-03-24T07:36:24;14.55;;;12.25;;
67508;SDS011;54354;44.724;11.284;2023-03-24T07:38:50;14.00;;;12.60;;
67508;SDS011;54354;44.724;11.284;2023-03-24T07:41:24;16.70;;;11.82;;
67508;SDS011;54354;44.724;11.284;2023-03-24T07:43:56;15.77;;;12.95;;
67508;SDS011;54354;44.724;11.284;2023-03-24T07:46:29;18.55;;;12.90;;
67508;SDS011;54354;44.724;11.284;2023-03-24T07:48:55;16.38;;;13.65;;
67508;SDS011;54354;44.724;11.284;2023-03-24T07:51:21;19.67;;;12.48;;
67508;SDS011;54354;44.724;11.284;2023-03-24T07:56:26;22.33;;;13.52;;
67508;SDS011;54354;44.724;11.284;2023-03-24T07:58:55;16.42;;;13.10;;
67508;SDS011;54354;44.724;11.284;2023-03-24T08:01:47;16.85;;;12.63;;
67508;SDS011;54354;44.724;11.284;2023-03-24T08:04:16;15.20;;;12.13;;
67508;SDS011;54354;44.724;11.284;2023-03-24T08:07:04;14.13;;;12.20;;
67508;SDS011;54354;44.724;11.284;2023-03-24T08:09:30;11.75;;;10.55;;
67508;SDS011;54354;44.724;11.284;2023-03-24T08:11:55;13.80;;;10.35;;
67508;SDS011;54354;44.724;11.284;2023-03-24T08:14:21;11.80;;;9.90;;
67508;SDS011;54354;44.724;11.284;2023-03-24T08:16:46;13.20;;;9.60;;
67508;SDS011;54354;44.724;11.284;2023-03-24T08:19:11;12.07;;;9.82;;
67508;SDS011;54354;44.724;11.284;2023-03-24T08:21:37;11.55;;;10.35;;
67508;SDS011;54354;44.724;11.284;2023-03-24T08:24:02;11.18;;;9.68;;
67508;SDS011;54354;44.724;11.284;2023-03-24T08:26:28;11.43;;;10.00;;
67508;SDS011;54354;44.724;11.284;2023-03-24T08:28:55;13.80;;;10.15;;
67508;SDS011;54354;44.724;11.284;2023-03-24T08:31:20;12.18;;;9.90;;
67508;SDS011;54354;44.724;11.284;2023-03-24T08:33:46;13.52;;;9.30;;
67508;SDS011;54354;44.724;11.284;2023-03-24T08:36:12;11.50;;;9.43;;
67508;SDS011;54354;44.724;11.284;2023-03-24T08:38:37;10.75;;;9.68;;
67508;SDS011;54354;44.724;11.284;2023-03-24T08:41:03;9.00;;;7.57;;
67508;SDS011;54354;44.724;11.284;2023-03-24T08:43:32;12.07;;;8.27;;
67508;SDS011;54354;44.724;11.284;2023-03-24T08:45:59;11.35;;;8.23;;
67508;SDS011;54354;44.724;11.284;2023-03-24T08:48:26;10.38;;;7.95;;
67508;SDS011;54354;44.724;11.284;2023-03-24T08:50:52;10.65;;;8.57;;
67508;SDS011;54354;44.724;11.284;2023-03-24T08:53:18;11.07;;;8.63;;
67508;SDS011;54354;44.724;11.284;2023-03-24T08:55:44;8.88;;;8.00;;
67508;SDS011;54354;44.724;11.284;2023-03-24T08:58:14;9.57;;;8.57;;
67508;SDS011;54354;44.724;11.284;2023-03-24T09:00:41;9.25;;;8.35;;
67508;SDS011;54354;44.724;11.284;2023-03-24T09:03:09;10.07;;;8.60;;
67508;SDS011;54354;44.724;11.284;2023-03-24T09:05:38;11.43;;;8.50;;
67508;SDS011;54354;44.724;11.284;2023-03-24T09:08:05;9.90;;;8.73;;
67508;SDS011;54354;44.724;11.284;2023-03-24T09:10:32;10.63;;;9.50;;
67508;SDS011;54354;44.724;11.284;2023-03-24T09:12:58;12.80;;;9.52;;
67508;SDS011;54354;44.724;11.284;2023-03-24T09:15:23;10.35;;;9.35;;
67508;SDS011;54354;44.724;11.284;2023-03-24T09:17:49;12.00;;;9.90;;
67508;SDS011;54354;44.724;11.284;2023-03-24T09:20:14;10.80;;;9.77;;
67508;SDS011;54354;44.724;11.284;2023-03-24T09:22:41;12.27;;;9.50;;
67508;SDS011;54354;44.724;11.284;2023-03-24T09:25:09;12.60;;;9.65;;
67508;SDS011;54354;44.724;11.284;2023-03-24T09:27:36;11.15;;;9.63;;
67508;SDS011;54354;44.724;11.284;2023-03-24T09:30:02;13.73;;;9.48;;
67508;SDS011;54354;44.724;11.284;2023-03-24T09:32:28;13.40;;;10.18;;
67508;SDS011;54354;44.724;11.284;2023-03-24T09:34:54;11.95;;;10.57;;
67508;SDS011;54354;44.724;11.284;2023-03-24T09:37:20;11.85;;;10.45;;
67508;SDS011;54354;44.724;11.284;2023-03-24T09:39:46;10.88;;;9.77;;
67508;SDS011;54354;44.724;11.284;2023-03-24T09:42:19;13.32;;;9.85;;
67508;SDS011;54354;44.724;11.284;2023-03-24T09:44:49;16.25;;;10.40;;
67508;SDS011;54354;44.724;11.284;2023-03-24T09:49:48;14.18;;;10.68;;
67508;SDS011;54354;44.724;11.284;2023-03-24T09:52:13;15.75;;;11.27;;
67508;SDS011;54354;44.724;11.284;2023-03-24T09:59:54;13.35;;;10.00;;
67508;SDS011;54354;44.724;11.284;2023-03-24T10:02:20;11.80;;;9.60;;
67508;SDS011;54354;44.724;11.284;2023-03-24T10:04:46;12.48;;;10.52;;
67508;SDS011;54354;44.724;11.284;2023-03-24T10:10:01;10.98;;;8.90;;
67508;SDS011;54354;44.724;11.284;2023-03-24T10:20:44;12.40;;;9.82;;
67508;SDS011;54354;44.724;11.284;2023-03-24T10:23:23;11.13;;;9.93;;
67508;SDS011;54354;44.724;11.284;2023-03-24T10:31:27;8.50;;;7.65;;
67508;SDS011;54354;44.724;11.284;2023-03-24T10:33:55;8.38;;;6.93;;
67508;SDS011;54354;44.724;11.284;2023-03-24T10:36:21;7.68;;;5.82;;
67508;SDS011;54354;44.724;11.284;2023-03-24T10:38:47;9.73;;;6.28;;
67508;SDS011;54354;44.724;11.284;2023-03-24T10:41:23;10.35;;;6.68;;
67508;SDS011;54354;44.724;11.284;2023-03-24T10:43:52;11.60;;;7.40;;
67508;SDS011;54354;44.724;11.284;2023-03-24T10:46:21;8.00;;;6.97;;
67508;SDS011;54354;44.724;11.284;2023-03-24T10:48:50;9.45;;;6.78;;
67508;SDS011;54354;44.724;11.284;2023-03-24T10:51:19;8.73;;;6.47;;
67508;SDS011;54354;44.724;11.284;2023-03-24T10:53:50;9.50;;;7.07;;
67508;SDS011;54354;44.724;11.284;2023-03-24T10:56:40;9.95;;;6.43;;
67508;SDS011;54354;44.724;11.284;2023-03-24T11:02:24;7.50;;;6.50;;
67508;SDS011;54354;44.724;11.284;2023-03-24T11:04:56;8.18;;;5.97;;
67508;SDS011;54354;44.724;11.284;2023-03-24T11:07:28;8.85;;;7.18;;
67508;SDS011;54354;44.724;11.284;2023-03-24T11:12:35;7.40;;;6.50;;
67508;SDS011;54354;44.724;11.284;2023-03-24T11:17:28;7.78;;;5.60;;
67508;SDS011;54354;44.724;11.284;2023-03-24T11:19:54;9.93;;;5.20;;
67508;SDS011;54354;44.724;11.284;2023-03-24T11:22:21;5.70;;;4.55;;
67508;SDS011;54354;44.724;11.284;2023-03-24T11:24:49;7.85;;;4.95;;
67508;SDS011;54354;44.724;11.284;2023-03-24T11:29:46;6.72;;;4.45;;
67508;SDS011;54354;44.724;11.284;2023-03-24T11:32:20;6.72;;;4.57;;
67508;SDS011;54354;44.724;11.284;2023-03-24T11:35:14;5.00;;;4.10;;
67508;SDS011;54354;44.724;11.284;2023-03-24T11:37:41;6.78;;;4.63;;
67508;SDS011;54354;44.724;11.284;2023-03-24T11:42:42;6.80;;;5.47;;
67508;SDS011;54354;44.724;11.284;2023-03-24T11:47:47;6.00;;;5.32;;
67508;SDS011;54354;44.724;11.284;2023-03-24T11:55:58;8.73;;;5.18;;
67508;SDS011;54354;44.724;11.284;2023-03-24T12:12:04;7.72;;;5.68;;
67508;SDS011;54354;44.724;11.284;2023-03-24T12:20:02;6.32;;;5.20;;
67508;SDS011;54354;44.724;11.284;2023-03-24T12:28:13;6.20;;;5.50;;
67508;SDS011;54354;44.724;11.284;2023-03-24T12:33:36;7.65;;;5.95;;
67508;SDS011;54354;44.724;11.284;2023-03-24T12:39:23;7.38;;;6.05;;
67508;SDS011;54354;44.724;11.284;2023-03-24T12:42:08;12.80;;;6.72;;
67508;SDS011;54354;44.724;11.284;2023-03-24T12:52:46;9.35;;;6.45;;
67508;SDS011;54354;44.724;11.284;2023-03-24T12:55:53;7.97;;;7.18;;
67508;SDS011;54354;44.724;11.284;2023-03-24T12:58:38;10.52;;;6.60;;
67508;SDS011;54354;44.724;11.284;2023-03-24T13:01:06;11.07;;;6.95;;
67508;SDS011;54354;44.724;11.284;2023-03-24T13:03:40;7.97;;;6.38;;
67508;SDS011;54354;44.724;11.284;2023-03-24T13:06:19;9.93;;;7.05;;
67508;SDS011;54354;44.724;11.284;2023-03-24T13:09:01;12.48;;;6.85;;
67508;SDS011;54354;44.724;11.284;2023-03-24T13:11:56;7.80;;;6.15;;
67508;SDS011;54354;44.724;11.284;2023-03-24T13:17:30;7.97;;;5.65;;
67508;SDS011;54354;44.724;11.284;2023-03-24T13:20:00;10.75;;;5.03;;
67508;SDS011;54354;44.724;11.284;2023-03-24T13:22:34;7.40;;;4.97;;
67508;SDS011;54354;44.724;11.284;2023-03-24T13:25:02;5.22;;;4.72;;
67508;SDS011;54354;44.724;11.284;2023-03-24T13:27:34;5.50;;;4.30;;
67508;SDS011;54354;44.724;11.284;2023-03-24T13:30:13;6.05;;;4.57;;
67508;SDS011;54354;44.724;11.284;2023-03-24T13:32:54;8.00;;;4.80;;
67508;SDS011;54354;44.724;11.284;2023-03-24T13:35:28;7.07;;;4.78;;
67508;SDS011;54354;44.724;11.284;2023-03-24T13:38:18;6.05;;;4.88;;
67508;SDS011;54354;44.724;11.284;2023-03-24T13:40:59;7.28;;;3.90;;
67508;SDS011;54354;44.724;11.284;2023-03-24T13:43:28;4.40;;;3.40;;
67508;SDS011;54354;44.724;11.284;2023-03-24T13:48:37;6.65;;;3.33;;
67508;SDS011;54354;44.724;11.284;2023-03-24T13:51:19;4.10;;;3.50;;
67508;SDS011;54354;44.724;11.284;2023-03-24T13:56:44;5.60;;;3.80;;
67508;SDS011;54354;44.724;11.284;2023-03-24T14:04:43;4.78;;;3.60;;
67508;SDS011;54354;44.724;11.284;2023-03-24T14:12:51;4.87;;;3.50;;
67508;SDS011;54354;44.724;11.284;2023-03-24T14:15:21;6.30;;;3.50;;
67508;SDS011;54354;44.724;11.284;2023-03-24T14:17:53;3.47;;;3.17;;
67508;SDS011;54354;44.724;11.284;2023-03-24T14:23:47;6.38;;;3.53;;
67508;SDS011;54354;44.724;11.284;2023-03-24T14:28:45;7.72;;;2.97;;
67508;SDS011;54354;44.724;11.284;2023-03-24T14:39:05;7.32;;;2.58;;
67508;SDS011;54354;44.724;11.284;2023-03-24T14:41:35;4.65;;;2.20;;
67508;SDS011;54354;44.724;11.284;2023-03-24T14:44:05;5.10;;;2.47;;
67508;SDS011;54354;44.724;11.284;2023-03-24T14:46:32;5.18;;;2.30;;
67508;SDS011;54354;44.724;11.284;2023-03-24T14:49:12;3.92;;;2.05;;
67508;SDS011;54354;44.724;11.284;2023-03-24T14:51:51;2.53;;;2.00;;
67508;SDS011;54354;44.724;11.284;2023-03-24T14:54:36;4.07;;;2.00;;
67508;SDS011;54354;44.724;11.284;2023-03-24T14:57:03;3.67;;;2.53;;
67508;SDS011;54354;44.724;11.284;2023-03-24T14:59:36;4.00;;;2.60;;
67508;SDS011;54354;44.724;11.284;2023-03-24T15:02:12;4.70;;;2.13;;
67508;SDS011;54354;44.724;11.284;2023-03-24T15:07:44;4.78;;;2.42;;
67508;SDS011;54354;44.724;11.284;2023-03-24T15:10:22;3.28;;;2.42;;
67508;SDS011;54354;44.724;11.284;2023-03-24T15:12:48;3.67;;;2.40;;
67508;SDS011;54354;44.724;11.284;2023-03-24T15:15:15;5.93;;;2.08;;
67508;SDS011;54354;44.724;11.284;2023-03-24T15:17:43;4.22;;;2.33;;
67508;SDS011;54354;44.724;11.284;2023-03-24T15:23:07;3.20;;;2.33;;
67508;SDS011;54354;44.724;11.284;2023-03-24T15:25:37;6.55;;;2.55;;
67508;SDS011;54354;44.724;11.284;2023-03-24T15:28:09;3.10;;;2.53;;
67508;SDS011;54354;44.724;11.284;2023-03-24T15:30:42;3.90;;;2.20;;
67508;SDS011;54354;44.724;11.284;2023-03-24T15:33:08;3.85;;;2.60;;
67508;SDS011;54354;44.724;11.284;2023-03-24T15:35:35;5.47;;;2.40;;
67508;SDS011;54354;44.724;11.284;2023-03-24T15:38:01;3.50;;;2.30;;
67508;SDS011;54354;44.724;11.284;2023-03-24T15:42:57;5.47;;;2.38;;
67508;SDS011;54354;44.724;11.284;2023-03-24T15:45:31;5.35;;;2.50;;
67508;SDS011;54354;44.724;11.284;2023-03-24T15:48:12;6.50;;;2.20;;
67508;SDS011;54354;44.724;11.284;2023-03-24T15:50:41;5.93;;;2.72;;
67508;SDS011;54354;44.724;11.284;2023-03-24T15:53:22;8.57;;;5.18;;
67508;SDS011;54354;44.724;11.284;2023-03-24T15:56:11;4.68;;;3.80;;
67508;SDS011;54354;44.724;11.284;2023-03-24T15:58:54;5.28;;;2.70;;
67508;SDS011;54354;44.724;11.284;2023-03-24T16:01:25;2.83;;;2.45;;
67508;SDS011;54354;44.724;11.284;2023-03-24T16:03:55;6.25;;;2.58;;
67508;SDS011;54354;44.724;11.284;2023-03-24T16:06:27;3.50;;;2.63;;
67508;SDS011;54354;44.724;11.284;2023-03-24T16:09:01;5.43;;;2.58;;
67508;SDS011;54354;44.724;11.284;2023-03-24T16:11:30;5.32;;;2.88;;
67508;SDS011;54354;44.724;11.284;2023-03-24T16:13:56;5.53;;;2.65;;
67508;SDS011;54354;44.724;11.284;2023-03-24T16:18:52;7.40;;;2.55;;
67508;SDS011;54354;44.724;11.284;2023-03-24T16:21:23;4.57;;;2.58;;
67508;SDS011;54354;44.724;11.284;2023-03-24T16:23:51;4.40;;;2.70;;
67508;SDS011;54354;44.724;11.284;2023-03-24T16:26:31;5.13;;;2.67;;
67508;SDS011;54354;44.724;11.284;2023-03-24T16:29:16;5.47;;;2.67;;
67508;SDS011;54354;44.724;11.284;2023-03-24T16:31:46;5.78;;;3.17;;
67508;SDS011;54354;44.724;11.284;2023-03-24T16:34:18;5.70;;;2.70;;
67508;SDS011;54354;44.724;11.284;2023-03-24T16:36:49;2.80;;;2.60;;
67508;SDS011;54354;44.724;11.284;2023-03-24T16:39:17;10.75;;;3.00;;
67508;SDS011;54354;44.724;11.284;2023-03-24T16:41:44;5.25;;;2.70;;
67508;SDS011;54354;44.724;11.284;2023-03-24T16:44:10;4.80;;;3.08;;
67508;SDS011;54354;44.724;11.284;2023-03-24T16:46:37;5.95;;;2.92;;
67508;SDS011;54354;44.724;11.284;2023-03-24T16:49:05;6.80;;;3.47;;
67508;SDS011;54354;44.724;11.284;2023-03-24T16:51:32;11.55;;;3.17;;
67508;SDS011;54354;44.724;11.284;2023-03-24T16:53:58;6.05;;;2.85;;
67508;SDS011;54354;44.724;11.284;2023-03-24T16:56:24;6.68;;;3.20;;
67508;SDS011;54354;44.724;11.284;2023-03-24T16:58:50;9.05;;;3.17;;
67508;SDS011;54354;44.724;11.284;2023-03-24T17:01:31;4.53;;;3.38;;
67508;SDS011;54354;44.724;11.284;2023-03-24T17:06:27;9.63;;;3.55;;
67508;SDS011;54354;44.724;11.284;2023-03-24T17:08:54;9.95;;;3.40;;
67508;SDS011;54354;44.724;11.284;2023-03-24T17:11:54;4.57;;;3.03;;
67508;SDS011;54354;44.724;11.284;2023-03-24T17:14:14;9.55;;;3.10;;
67508;SDS011;54354;44.724;11.284;2023-03-24T17:16:41;7.35;;;3.15;;
67508;SDS011;54354;44.724;11.284;2023-03-24T17:19:09;5.63;;;2.80;;
67508;SDS011;54354;44.724;11.284;2023-03-24T17:21:37;4.53;;;3.10;;
67508;SDS011;54354;44.724;11.284;2023-03-24T17:24:09;6.38;;;3.40;;
67508;SDS011;54354;44.724;11.284;2023-03-24T17:26:37;8.05;;;3.63;;
67508;SDS011;54354;44.724;11.284;2023-03-24T17:29:04;5.30;;;3.30;;
67508;SDS011;54354;44.724;11.284;2023-03-24T17:31:30;6.53;;;3.28;;
67508;SDS011;54354;44.724;11.284;2023-03-24T17:33:56;6.10;;;2.83;;
67508;SDS011;54354;44.724;11.284;2023-03-24T17:36:22;9.70;;;3.28;;
67508;SDS011;54354;44.724;11.284;2023-03-24T17:38:48;7.85;;;3.05;;
67508;SDS011;54354;44.724;11.284;2023-03-24T17:41:14;6.82;;;3.20;;
67508;SDS011;54354;44.724;11.284;2023-03-24T17:43:41;9.65;;;3.03;;
67508;SDS011;54354;44.724;11.284;2023-03-24T17:46:08;4.72;;;2.80;;
67508;SDS011;54354;44.724;11.284;2023-03-24T17:48:34;5.60;;;3.05;;
67508;SDS011;54354;44.724;11.284;2023-03-24T17:51:01;6.00;;;3.40;;
67508;SDS011;54354;44.724;11.284;2023-03-24T17:53:26;10.23;;;3.70;;